sensor_id;sensor_type;location;lat;lon;timestamp;temperature;humidity
16347;DHT22;8283;48.504;13.734;2023-03-01T00:02:40;6.90;53.30
16347;DHT22;8283;48.504;13.734;2023-03-01T00:05:25;6.90;53.30
16347;DHT22;8283;48.504;13.734;2023-03-01T00:08:09;6.80;53.40
16347;DHT22;8283;48.504;13.734;2023-03-01T00:11:13;6.80;53.40
16347;DHT22;8283;48.504;13.734;2023-03-01T00:14:00;6.70;53.80
16347;DHT22;8283;48.504;13.734;2023-03-01T00:16:46;6.70;53.40
16347;DHT22;8283;48.504;13.734;2023-03-01T00:19:30;6.70;53.30
16347;DHT22;8283;48.504;13.734;2023-03-01T00:22:16;6.60;53.30
16347;DHT22;8283;48.504;13.734;2023-03-01T00:25:01;6.60;53.40
16347;DHT22;8283;48.504;13.734;2023-03-01T00:27:46;6.50;53.40
16347;DHT22;8283;48.504;13.734;2023-03-01T00:30:33;6.50;53.50
16347;DHT22;8283;48.504;13.734;2023-03-01T00:33:17;6.50;53.50
16347;DHT22;8283;48.504;13.734;2023-03-01T00:36:02;6.40;53.50
16347;DHT22;8283;48.504;13.734;2023-03-01T00:38:47;6.40;53.50
16347;DHT22;8283;48.504;13.734;2023-03-01T00:41:31;6.30;53.50
16347;DHT22;8283;48.504;13.734;2023-03-01T00:44:17;6.30;53.50
16347;DHT22;8283;48.504;13.734;2023-03-01T00:47:01;6.30;53.50
16347;DHT22;8283;48.504;13.734;2023-03-01T00:49:46;6.20;53.50
16347;DHT22;8283;48.504;13.734;2023-03-01T00:52:30;6.10;53.50
16347;DHT22;8283;48.504;13.734;2023-03-01T00:55:14;6.10;53.50
16347;DHT22;8283;48.504;13.734;2023-03-01T00:57:58;6.10;53.60
16347;DHT22;8283;48.504;13.734;2023-03-01T01:00:43;6.00;53.60
16347;DHT22;8283;48.504;13.734;2023-03-01T01:03:27;5.90;53.60
16347;DHT22;8283;48.504;13.734;2023-03-01T01:06:20;5.90;53.70
16347;DHT22;8283;48.504;13.734;2023-03-01T01:09:06;5.90;54.00
16347;DHT22;8283;48.504;13.734;2023-03-01T01:11:51;5.90;53.80
16347;DHT22;8283;48.504;13.734;2023-03-01T01:14:36;5.80;53.80
16347;DHT22;8283;48.504;13.734;2023-03-01T01:17:21;5.80;53.90
16347;DHT22;8283;48.504;13.734;2023-03-01T01:20:06;5.70;54.10
16347;DHT22;8283;48.504;13.734;2023-03-01T01:22:51;5.70;54.10
16347;DHT22;8283;48.504;13.734;2023-03-01T01:25:36;5.70;54.20
16347;DHT22;8283;48.504;13.734;2023-03-01T01:28:21;5.60;54.30
16347;DHT22;8283;48.504;13.734;2023-03-01T01:31:05;5.60;54.30
16347;DHT22;8283;48.504;13.734;2023-03-01T01:33:50;5.60;54.40
16347;DHT22;8283;48.504;13.734;2023-03-01T01:36:35;5.60;54.40
16347;DHT22;8283;48.504;13.734;2023-03-01T01:39:20;5.60;54.50
16347;DHT22;8283;48.504;13.734;2023-03-01T01:42:04;5.50;54.40
16347;DHT22;8283;48.504;13.734;2023-03-01T01:45:15;5.50;54.40
16347;DHT22;8283;48.504;13.734;2023-03-01T01:47:55;5.50;54.40
16347;DHT22;8283;48.504;13.734;2023-03-01T01:50:41;5.50;54.50
16347;DHT22;8283;48.504;13.734;2023-03-01T01:53:26;5.50;54.50
16347;DHT22;8283;48.504;13.734;2023-03-01T01:56:11;5.40;54.40
16347;DHT22;8283;48.504;13.734;2023-03-01T01:58:57;5.40;54.40
16347;DHT22;8283;48.504;13.734;2023-03-01T02:01:43;5.40;54.40
16347;DHT22;8283;48.504;13.734;2023-03-01T02:04:28;5.40;54.50
16347;DHT22;8283;48.504;13.734;2023-03-01T02:07:16;5.30;54.50
16347;DHT22;8283;48.504;13.734;2023-03-01T02:10:02;5.30;54.50
16347;DHT22;8283;48.504;13.734;2023-03-01T02:12:47;5.30;54.50
16347;DHT22;8283;48.504;13.734;2023-03-01T02:15:36;5.30;54.50
16347;DHT22;8283;48.504;13.734;2023-03-01T02:18:22;5.30;54.70
16347;DHT22;8283;48.504;13.734;2023-03-01T02:24:28;5.20;55.30
16347;DHT22;8283;48.504;13.734;2023-03-01T02:27:16;5.20;55.10
16347;DHT22;8283;48.504;13.734;2023-03-01T02:30:02;5.10;54.80
16347;DHT22;8283;48.504;13.734;2023-03-01T02:32:48;5.10;54.80
16347;DHT22;8283;48.504;13.734;2023-03-01T02:35:38;5.10;54.80
16347;DHT22;8283;48.504;13.734;2023-03-01T02:38:23;5.10;54.90
16347;DHT22;8283;48.504;13.734;2023-03-01T02:41:09;5.10;55.40
16347;DHT22;8283;48.504;13.734;2023-03-01T02:43:55;5.10;54.90
16347;DHT22;8283;48.504;13.734;2023-03-01T02:46:48;5.10;55.00
16347;DHT22;8283;48.504;13.734;2023-03-01T02:49:34;5.10;55.10
16347;DHT22;8283;48.504;13.734;2023-03-01T02:52:47;5.10;55.00
16347;DHT22;8283;48.504;13.734;2023-03-01T02:55:37;5.10;55.20
16347;DHT22;8283;48.504;13.734;2023-03-01T02:58:23;5.10;54.80
16347;DHT22;8283;48.504;13.734;2023-03-01T03:01:07;5.10;54.90
16347;DHT22;8283;48.504;13.734;2023-03-01T03:03:53;5.20;54.80
16347;DHT22;8283;48.504;13.734;2023-03-01T03:06:38;5.20;54.80
16347;DHT22;8283;48.504;13.734;2023-03-01T03:09:22;5.30;55.00
16347;DHT22;8283;48.504;13.734;2023-03-01T03:12:07;5.30;54.80
16347;DHT22;8283;48.504;13.734;2023-03-01T03:14:52;5.30;54.80
16347;DHT22;8283;48.504;13.734;2023-03-01T03:17:37;5.40;54.90
16347;DHT22;8283;48.504;13.734;2023-03-01T03:20:24;5.40;54.70
16347;DHT22;8283;48.504;13.734;2023-03-01T03:23:09;5.40;54.80
16347;DHT22;8283;48.504;13.734;2023-03-01T03:25:54;5.50;54.70
16347;DHT22;8283;48.504;13.734;2023-03-01T03:28:38;5.50;54.70
16347;DHT22;8283;48.504;13.734;2023-03-01T03:31:23;5.50;54.70
16347;DHT22;8283;48.504;13.734;2023-03-01T03:34:08;5.60;54.80
16347;DHT22;8283;48.504;13.734;2023-03-01T03:36:55;5.60;54.70
16347;DHT22;8283;48.504;13.734;2023-03-01T03:39:46;5.60;54.70
16347;DHT22;8283;48.504;13.734;2023-03-01T03:42:30;5.60;54.70
16347;DHT22;8283;48.504;13.734;2023-03-01T03:45:16;5.60;54.60
16347;DHT22;8283;48.504;13.734;2023-03-01T03:48:01;5.70;54.80
16347;DHT22;8283;48.504;13.734;2023-03-01T03:50:51;5.70;54.80
16347;DHT22;8283;48.504;13.734;2023-03-01T03:53:36;5.70;54.70
16347;DHT22;8283;48.504;13.734;2023-03-01T03:56:20;5.70;54.50
16347;DHT22;8283;48.504;13.734;2023-03-01T03:59:05;5.70;54.50
16347;DHT22;8283;48.504;13.734;2023-03-01T04:01:50;5.70;54.60
16347;DHT22;8283;48.504;13.734;2023-03-01T04:04:34;5.70;54.90
16347;DHT22;8283;48.504;13.734;2023-03-01T04:07:18;5.70;54.60
16347;DHT22;8283;48.504;13.734;2023-03-01T04:10:04;5.70;54.60
16347;DHT22;8283;48.504;13.734;2023-03-01T04:12:50;5.60;54.50
16347;DHT22;8283;48.504;13.734;2023-03-01T04:15:34;5.60;54.50
16347;DHT22;8283;48.504;13.734;2023-03-01T04:18:21;5.60;54.40
16347;DHT22;8283;48.504;13.734;2023-03-01T04:21:05;5.60;54.40
16347;DHT22;8283;48.504;13.734;2023-03-01T04:23:50;5.60;54.50
16347;DHT22;8283;48.504;13.734;2023-03-01T04:26:36;5.50;54.50
16347;DHT22;8283;48.504;13.734;2023-03-01T04:29:20;5.50;54.50
16347;DHT22;8283;48.504;13.734;2023-03-01T04:32:04;5.50;54.50
16347;DHT22;8283;48.504;13.734;2023-03-01T04:34:49;5.50;54.50
16347;DHT22;8283;48.504;13.734;2023-03-01T04:37:33;5.50;54.50
16347;DHT22;8283;48.504;13.734;2023-03-01T04:40:19;5.50;54.50
16347;DHT22;8283;48.504;13.734;2023-03-01T04:43:04;5.50;54.60
16347;DHT22;8283;48.504;13.734;2023-03-01T04:45:48;5.40;54.60
16347;DHT22;8283;48.504;13.734;2023-03-01T04:48:32;5.40;54.60
16347;DHT22;8283;48.504;13.734;2023-03-01T04:51:16;5.40;54.60
16347;DHT22;8283;48.504;13.734;2023-03-01T04:54:02;5.40;54.60
16347;DHT22;8283;48.504;13.734;2023-03-01T04:56:47;5.40;54.60
16347;DHT22;8283;48.504;13.734;2023-03-01T04:59:31;5.40;54.60
16347;DHT22;8283;48.504;13.734;2023-03-01T05:02:15;5.40;54.70
16347;DHT22;8283;48.504;13.734;2023-03-01T05:05:00;5.40;54.60
16347;DHT22;8283;48.504;13.734;2023-03-01T05:07:44;5.40;54.70
16347;DHT22;8283;48.504;13.734;2023-03-01T05:10:30;5.40;54.70
16347;DHT22;8283;48.504;13.734;2023-03-01T05:13:16;5.40;54.80
16347;DHT22;8283;48.504;13.734;2023-03-01T05:16:06;5.40;54.80
16347;DHT22;8283;48.504;13.734;2023-03-01T05:18:51;5.40;54.80
16347;DHT22;8283;48.504;13.734;2023-03-01T05:21:35;5.40;54.70
16347;DHT22;8283;48.504;13.734;2023-03-01T05:24:39;5.40;54.70
16347;DHT22;8283;48.504;13.734;2023-03-01T05:27:23;5.40;54.70
16347;DHT22;8283;48.504;13.734;2023-03-01T05:30:08;5.40;54.70
16347;DHT22;8283;48.504;13.734;2023-03-01T05:32:59;5.30;54.60
16347;DHT22;8283;48.504;13.734;2023-03-01T05:35:44;5.30;54.70
16347;DHT22;8283;48.504;13.734;2023-03-01T05:38:28;4.30;54.20
16347;DHT22;8283;48.504;13.734;2023-03-01T05:41:14;5.30;54.80
16347;DHT22;8283;48.504;13.734;2023-03-01T05:43:59;5.30;54.80
16347;DHT22;8283;48.504;13.734;2023-03-01T05:46:43;5.30;54.90
16347;DHT22;8283;48.504;13.734;2023-03-01T05:49:28;5.20;54.80
16347;DHT22;8283;48.504;13.734;2023-03-01T05:52:14;5.20;54.80
16347;DHT22;8283;48.504;13.734;2023-03-01T05:54:58;5.20;54.90
16347;DHT22;8283;48.504;13.734;2023-03-01T05:57:43;5.20;54.90
16347;DHT22;8283;48.504;13.734;2023-03-01T06:00:28;5.10;54.90
16347;DHT22;8283;48.504;13.734;2023-03-01T06:03:16;5.10;54.90
16347;DHT22;8283;48.504;13.734;2023-03-01T06:06:01;5.10;55.00
16347;DHT22;8283;48.504;13.734;2023-03-01T06:08:46;5.10;55.00
16347;DHT22;8283;48.504;13.734;2023-03-01T06:11:30;5.10;55.10
16347;DHT22;8283;48.504;13.734;2023-03-01T06:14:15;5.10;55.10
16347;DHT22;8283;48.504;13.734;2023-03-01T06:16:59;5.10;55.20
16347;DHT22;8283;48.504;13.734;2023-03-01T06:19:43;5.10;55.20
16347;DHT22;8283;48.504;13.734;2023-03-01T06:22:27;5.10;55.20
16347;DHT22;8283;48.504;13.734;2023-03-01T06:25:14;5.00;55.20
16347;DHT22;8283;48.504;13.734;2023-03-01T06:27:59;5.00;55.10
16347;DHT22;8283;48.504;13.734;2023-03-01T06:30:44;5.10;55.30
16347;DHT22;8283;48.504;13.734;2023-03-01T06:33:28;5.10;55.40
16347;DHT22;8283;48.504;13.734;2023-03-01T06:36:13;5.10;55.40
16347;DHT22;8283;48.504;13.734;2023-03-01T06:38:57;5.20;55.30
16347;DHT22;8283;48.504;13.734;2023-03-01T06:41:41;5.20;55.40
16347;DHT22;8283;48.504;13.734;2023-03-01T06:44:25;5.30;55.40
16347;DHT22;8283;48.504;13.734;2023-03-01T06:47:09;5.30;55.40
16347;DHT22;8283;48.504;13.734;2023-03-01T06:49:54;5.40;55.50
16347;DHT22;8283;48.504;13.734;2023-03-01T06:52:39;5.50;55.50
16347;DHT22;8283;48.504;13.734;2023-03-01T06:55:23;5.50;55.60
16347;DHT22;8283;48.504;13.734;2023-03-01T06:58:09;5.60;55.60
16347;DHT22;8283;48.504;13.734;2023-03-01T07:00:54;5.70;55.50
16347;DHT22;8283;48.504;13.734;2023-03-01T07:03:38;5.70;55.50
16347;DHT22;8283;48.504;13.734;2023-03-01T07:06:23;5.80;55.50
16347;DHT22;8283;48.504;13.734;2023-03-01T07:09:07;5.90;55.70
16347;DHT22;8283;48.504;13.734;2023-03-01T07:11:51;5.90;55.60
16347;DHT22;8283;48.504;13.734;2023-03-01T07:14:35;6.10;55.70
16347;DHT22;8283;48.504;13.734;2023-03-01T07:17:20;6.20;55.80
16347;DHT22;8283;48.504;13.734;2023-03-01T07:20:04;6.30;55.90
16347;DHT22;8283;48.504;13.734;2023-03-01T07:22:49;6.40;56.00
16347;DHT22;8283;48.504;13.734;2023-03-01T07:25:33;6.50;55.90
16347;DHT22;8283;48.504;13.734;2023-03-01T07:28:18;6.70;55.90
16347;DHT22;8283;48.504;13.734;2023-03-01T07:31:03;6.80;55.90
16347;DHT22;8283;48.504;13.734;2023-03-01T07:33:47;6.90;55.90
16347;DHT22;8283;48.504;13.734;2023-03-01T07:36:31;7.00;55.90
16347;DHT22;8283;48.504;13.734;2023-03-01T07:39:16;7.10;55.80
16347;DHT22;8283;48.504;13.734;2023-03-01T07:42:00;7.30;55.90
16347;DHT22;8283;48.504;13.734;2023-03-01T07:44:44;7.40;55.90
16347;DHT22;8283;48.504;13.734;2023-03-01T07:47:28;7.50;56.00
16347;DHT22;8283;48.504;13.734;2023-03-01T07:50:12;7.70;56.00
16347;DHT22;8283;48.504;13.734;2023-03-01T07:52:57;7.80;55.90
16347;DHT22;8283;48.504;13.734;2023-03-01T07:55:42;8.00;55.90
16347;DHT22;8283;48.504;13.734;2023-03-01T07:58:26;8.10;55.90
16347;DHT22;8283;48.504;13.734;2023-03-01T08:01:13;8.30;55.90
16347;DHT22;8283;48.504;13.734;2023-03-01T08:03:58;8.40;56.40
16347;DHT22;8283;48.504;13.734;2023-03-01T08:06:42;8.50;55.90
16347;DHT22;8283;48.504;13.734;2023-03-01T08:09:26;8.60;55.70
16347;DHT22;8283;48.504;13.734;2023-03-01T08:12:11;8.80;55.70
16347;DHT22;8283;48.504;13.734;2023-03-01T08:14:55;8.90;55.70
16347;DHT22;8283;48.504;13.734;2023-03-01T08:17:40;9.00;55.70
16347;DHT22;8283;48.504;13.734;2023-03-01T08:20:24;9.10;55.60
16347;DHT22;8283;48.504;13.734;2023-03-01T08:23:09;9.30;55.70
16347;DHT22;8283;48.504;13.734;2023-03-01T08:25:54;9.40;55.70
16347;DHT22;8283;48.504;13.734;2023-03-01T08:28:39;9.50;55.70
16347;DHT22;8283;48.504;13.734;2023-03-01T08:31:33;9.70;55.70
16347;DHT22;8283;48.504;13.734;2023-03-01T08:34:19;9.80;55.70
16347;DHT22;8283;48.504;13.734;2023-03-01T08:37:04;10.00;55.90
16347;DHT22;8283;48.504;13.734;2023-03-01T08:39:48;10.10;55.90
16347;DHT22;8283;48.504;13.734;2023-03-01T08:42:33;10.30;56.00
16347;DHT22;8283;48.504;13.734;2023-03-01T08:45:17;10.50;56.10
16347;DHT22;8283;48.504;13.734;2023-03-01T08:48:02;10.70;56.20
16347;DHT22;8283;48.504;13.734;2023-03-01T08:50:46;11.00;56.30
16347;DHT22;8283;48.504;13.734;2023-03-01T08:53:31;11.20;56.40
16347;DHT22;8283;48.504;13.734;2023-03-01T08:56:16;11.40;56.30
16347;DHT22;8283;48.504;13.734;2023-03-01T08:59:01;11.60;56.40
16347;DHT22;8283;48.504;13.734;2023-03-01T09:01:45;11.80;56.30
16347;DHT22;8283;48.504;13.734;2023-03-01T09:04:29;12.00;56.30
16347;DHT22;8283;48.504;13.734;2023-03-01T09:07:13;12.20;56.20
16347;DHT22;8283;48.504;13.734;2023-03-01T09:09:58;12.40;56.30
16347;DHT22;8283;48.504;13.734;2023-03-01T09:12:42;12.60;56.30
16347;DHT22;8283;48.504;13.734;2023-03-01T09:15:26;12.80;56.40
16347;DHT22;8283;48.504;13.734;2023-03-01T09:18:10;13.00;56.50
16347;DHT22;8283;48.504;13.734;2023-03-01T09:21:21;13.30;56.50
16347;DHT22;8283;48.504;13.734;2023-03-01T09:24:06;13.60;55.70
16347;DHT22;8283;48.504;13.734;2023-03-01T09:26:54;14.30;56.70
16347;DHT22;8283;48.504;13.734;2023-03-01T09:29:38;14.10;56.10
16347;DHT22;8283;48.504;13.734;2023-03-01T09:32:23;14.30;56.20
16347;DHT22;8283;48.504;13.734;2023-03-01T09:35:08;14.60;56.50
16347;DHT22;8283;48.504;13.734;2023-03-01T09:37:53;14.80;56.40
16347;DHT22;8283;48.504;13.734;2023-03-01T09:40:42;15.10;56.40
16347;DHT22;8283;48.504;13.734;2023-03-01T09:46:34;15.60;56.20
16347;DHT22;8283;48.504;13.734;2023-03-01T09:49:25;15.90;55.70
16347;DHT22;8283;48.504;13.734;2023-03-01T09:55:32;16.30;54.20
16347;DHT22;8283;48.504;13.734;2023-03-01T10:04:40;16.80;52.80
16347;DHT22;8283;48.504;13.734;2023-03-01T10:07:53;16.90;55.00
16347;DHT22;8283;48.504;13.734;2023-03-01T10:10:43;17.10;53.30
16347;DHT22;8283;48.504;13.734;2023-03-01T10:13:54;17.40;55.00
16347;DHT22;8283;48.504;13.734;2023-03-01T10:16:50;17.70;54.00
16347;DHT22;8283;48.504;13.734;2023-03-01T10:19:38;17.90;55.00
16347;DHT22;8283;48.504;13.734;2023-03-01T10:22:31;18.10;54.50
16347;DHT22;8283;48.504;13.734;2023-03-01T10:25:44;18.30;53.60
16347;DHT22;8283;48.504;13.734;2023-03-01T10:34:31;18.80;52.40
16347;DHT22;8283;48.504;13.734;2023-03-01T10:37:18;19.00;53.20
16347;DHT22;8283;48.504;13.734;2023-03-01T10:40:07;19.10;53.00
16347;DHT22;8283;48.504;13.734;2023-03-01T10:42:52;19.20;53.00
16347;DHT22;8283;48.504;13.734;2023-03-01T10:45:38;19.30;53.10
16347;DHT22;8283;48.504;13.734;2023-03-01T10:48:25;19.40;52.80
16347;DHT22;8283;48.504;13.734;2023-03-01T10:51:17;19.40;52.30
16347;DHT22;8283;48.504;13.734;2023-03-01T10:54:01;19.50;51.60
16347;DHT22;8283;48.504;13.734;2023-03-01T10:56:51;19.50;52.30
16347;DHT22;8283;48.504;13.734;2023-03-01T10:59:38;19.50;51.80
16347;DHT22;8283;48.504;13.734;2023-03-01T11:02:29;19.50;51.80
16347;DHT22;8283;48.504;13.734;2023-03-01T11:08:00;19.40;51.70
16347;DHT22;8283;48.504;13.734;2023-03-01T11:10:45;19.50;51.60
16347;DHT22;8283;48.504;13.734;2023-03-01T11:13:30;19.60;51.70
16347;DHT22;8283;48.504;13.734;2023-03-01T11:16:14;19.70;51.70
16347;DHT22;8283;48.504;13.734;2023-03-01T11:19:03;19.80;51.40
16347;DHT22;8283;48.504;13.734;2023-03-01T11:22:01;19.90;51.40
16347;DHT22;8283;48.504;13.734;2023-03-01T11:24:49;20.00;50.50
16347;DHT22;8283;48.504;13.734;2023-03-01T11:27:40;20.20;51.40
16347;DHT22;8283;48.504;13.734;2023-03-01T11:30:31;20.30;51.10
16347;DHT22;8283;48.504;13.734;2023-03-01T11:36:31;20.80;50.70
16347;DHT22;8283;48.504;13.734;2023-03-01T11:39:37;21.20;50.70
16347;DHT22;8283;48.504;13.734;2023-03-01T11:42:40;21.50;51.40
16347;DHT22;8283;48.504;13.734;2023-03-01T11:51:49;22.20;49.50
16347;DHT22;8283;48.504;13.734;2023-03-01T12:01:18;22.50;48.00
16347;DHT22;8283;48.504;13.734;2023-03-01T12:10:36;22.40;47.50
16347;DHT22;8283;48.504;13.734;2023-03-01T12:16:57;22.40;48.40
16347;DHT22;8283;48.504;13.734;2023-03-01T12:26:27;22.60;47.30
16347;DHT22;8283;48.504;13.734;2023-03-01T12:32:28;22.90;48.00
16347;DHT22;8283;48.504;13.734;2023-03-01T12:44:41;23.20;49.40
16347;DHT22;8283;48.504;13.734;2023-03-01T12:50:44;23.50;47.90
16347;DHT22;8283;48.504;13.734;2023-03-01T12:53:44;23.50;46.90
16347;DHT22;8283;48.504;13.734;2023-03-01T12:56:31;23.60;46.60
16347;DHT22;8283;48.504;13.734;2023-03-01T13:05:42;23.10;44.70
16347;DHT22;8283;48.504;13.734;2023-03-01T13:11:22;22.90;45.00
16347;DHT22;8283;48.504;13.734;2023-03-01T13:17:30;22.00;45.00
16347;DHT22;8283;48.504;13.734;2023-03-01T13:20:24;21.80;44.60
16347;DHT22;8283;48.504;13.734;2023-03-01T13:26:11;21.60;46.50
16347;DHT22;8283;48.504;13.734;2023-03-01T13:28:58;21.60;46.20
16347;DHT22;8283;48.504;13.734;2023-03-01T13:34:46;21.80;46.70
16347;DHT22;8283;48.504;13.734;2023-03-01T13:37:36;21.90;45.90
16347;DHT22;8283;48.504;13.734;2023-03-01T13:43:27;22.00;46.90
16347;DHT22;8283;48.504;13.734;2023-03-01T13:46:20;22.10;46.30
16347;DHT22;8283;48.504;13.734;2023-03-01T13:49:04;22.00;45.40
16347;DHT22;8283;48.504;13.734;2023-03-01T13:51:50;21.90;46.10
16347;DHT22;8283;48.504;13.734;2023-03-01T13:54:38;21.90;46.40
16347;DHT22;8283;48.504;13.734;2023-03-01T13:57:34;21.90;46.20
16347;DHT22;8283;48.504;13.734;2023-03-01T14:00:29;21.80;45.80
16347;DHT22;8283;48.504;13.734;2023-03-01T14:03:20;21.80;45.80
16347;DHT22;8283;48.504;13.734;2023-03-01T14:06:13;21.70;44.80
16347;DHT22;8283;48.504;13.734;2023-03-01T14:12:21;21.70;43.80
16347;DHT22;8283;48.504;13.734;2023-03-01T14:15:19;21.60;45.00
16347;DHT22;8283;48.504;13.734;2023-03-01T14:18:14;21.40;43.90
16347;DHT22;8283;48.504;13.734;2023-03-01T14:21:07;21.20;45.10
16347;DHT22;8283;48.504;13.734;2023-03-01T14:23:52;21.00;45.00
16347;DHT22;8283;48.504;13.734;2023-03-01T14:26:37;20.80;45.40
16347;DHT22;8283;48.504;13.734;2023-03-01T14:29:34;20.60;45.40
16347;DHT22;8283;48.504;13.734;2023-03-01T14:32:24;20.50;45.00
16347;DHT22;8283;48.504;13.734;2023-03-01T14:35:21;20.40;45.50
16347;DHT22;8283;48.504;13.734;2023-03-01T14:38:06;20.30;45.30
16347;DHT22;8283;48.504;13.734;2023-03-01T14:40:53;20.20;45.60
16347;DHT22;8283;48.504;13.734;2023-03-01T14:43:43;20.00;45.10
16347;DHT22;8283;48.504;13.734;2023-03-01T14:46:39;19.90;44.90
16347;DHT22;8283;48.504;13.734;2023-03-01T14:49:27;19.60;44.70
16347;DHT22;8283;48.504;13.734;2023-03-01T14:52:42;19.30;44.40
16347;DHT22;8283;48.504;13.734;2023-03-01T14:55:34;19.00;44.60
16347;DHT22;8283;48.504;13.734;2023-03-01T14:58:21;18.60;44.70
16347;DHT22;8283;48.504;13.734;2023-03-01T15:01:06;18.40;44.90
16347;DHT22;8283;48.504;13.734;2023-03-01T15:03:52;18.00;44.90
16347;DHT22;8283;48.504;13.734;2023-03-01T15:06:37;17.70;45.10
16347;DHT22;8283;48.504;13.734;2023-03-01T15:09:22;17.40;45.30
16347;DHT22;8283;48.504;13.734;2023-03-01T15:15:35;17.10;45.60
16347;DHT22;8283;48.504;13.734;2023-03-01T15:18:22;16.90;45.70
16347;DHT22;8283;48.504;13.734;2023-03-01T15:21:29;16.60;45.80
16347;DHT22;8283;48.504;13.734;2023-03-01T15:24:21;16.40;46.00
16347;DHT22;8283;48.504;13.734;2023-03-01T15:27:19;16.20;46.10
16347;DHT22;8283;48.504;13.734;2023-03-01T15:30:05;16.10;46.30
16347;DHT22;8283;48.504;13.734;2023-03-01T15:48:03;15.20;46.80
16347;DHT22;8283;48.504;13.734;2023-03-01T15:50:55;15.00;46.90
16347;DHT22;8283;48.504;13.734;2023-03-01T15:53:49;14.90;47.20
16347;DHT22;8283;48.504;13.734;2023-03-01T15:56:34;14.80;47.20
16347;DHT22;8283;48.504;13.734;2023-03-01T15:59:19;14.70;47.30
16347;DHT22;8283;48.504;13.734;2023-03-01T16:02:09;14.60;47.30
16347;DHT22;8283;48.504;13.734;2023-03-01T16:04:54;14.50;48.10
16347;DHT22;8283;48.504;13.734;2023-03-01T16:07:40;14.40;47.70
16347;DHT22;8283;48.504;13.734;2023-03-01T16:10:25;14.20;47.70
16347;DHT22;8283;48.504;13.734;2023-03-01T16:13:10;14.10;47.80
16347;DHT22;8283;48.504;13.734;2023-03-01T16:15:54;14.00;47.80
16347;DHT22;8283;48.504;13.734;2023-03-01T16:18:39;14.00;47.90
16347;DHT22;8283;48.504;13.734;2023-03-01T16:21:24;13.90;47.90
16347;DHT22;8283;48.504;13.734;2023-03-01T16:24:09;13.80;48.00
16347;DHT22;8283;48.504;13.734;2023-03-01T16:26:54;13.70;47.90
16347;DHT22;8283;48.504;13.734;2023-03-01T16:29:38;13.60;47.90
16347;DHT22;8283;48.504;13.734;2023-03-01T16:32:22;13.60;48.00
16347;DHT22;8283;48.504;13.734;2023-03-01T16:35:07;13.60;48.10
16347;DHT22;8283;48.504;13.734;2023-03-01T16:37:52;13.50;48.10
16347;DHT22;8283;48.504;13.734;2023-03-01T16:40:38;13.40;48.00
16347;DHT22;8283;48.504;13.734;2023-03-01T16:43:22;13.30;48.10
16347;DHT22;8283;48.504;13.734;2023-03-01T16:46:11;13.20;48.40
16347;DHT22;8283;48.504;13.734;2023-03-01T16:48:56;13.10;48.60
16347;DHT22;8283;48.504;13.734;2023-03-01T16:51:41;13.10;48.50
16347;DHT22;8283;48.504;13.734;2023-03-01T16:54:26;13.00;48.50
16347;DHT22;8283;48.504;13.734;2023-03-01T16:57:10;12.90;48.50
16347;DHT22;8283;48.504;13.734;2023-03-01T16:59:54;12.90;48.50
16347;DHT22;8283;48.504;13.734;2023-03-01T17:02:40;12.80;48.50
16347;DHT22;8283;48.504;13.734;2023-03-01T17:05:25;12.80;48.50
16347;DHT22;8283;48.504;13.734;2023-03-01T17:08:10;12.80;48.50
16347;DHT22;8283;48.504;13.734;2023-03-01T17:10:54;12.70;48.50
16347;DHT22;8283;48.504;13.734;2023-03-01T17:13:39;12.70;48.60
16347;DHT22;8283;48.504;13.734;2023-03-01T17:16:23;12.60;48.50
16347;DHT22;8283;48.504;13.734;2023-03-01T17:19:08;12.50;48.50
16347;DHT22;8283;48.504;13.734;2023-03-01T17:21:52;12.40;48.70
16347;DHT22;8283;48.504;13.734;2023-03-01T17:24:38;12.30;48.90
16347;DHT22;8283;48.504;13.734;2023-03-01T17:27:22;12.20;49.30
16347;DHT22;8283;48.504;13.734;2023-03-01T17:30:11;12.20;49.10
16347;DHT22;8283;48.504;13.734;2023-03-01T17:32:56;12.10;49.00
16347;DHT22;8283;48.504;13.734;2023-03-01T17:35:41;12.10;49.00
16347;DHT22;8283;48.504;13.734;2023-03-01T17:38:25;12.00;48.90
16347;DHT22;8283;48.504;13.734;2023-03-01T17:41:10;12.00;49.00
16347;DHT22;8283;48.504;13.734;2023-03-01T17:43:55;11.90;48.90
16347;DHT22;8283;48.504;13.734;2023-03-01T17:46:39;11.80;48.90
16347;DHT22;8283;48.504;13.734;2023-03-01T17:49:23;11.70;49.00
16347;DHT22;8283;48.504;13.734;2023-03-01T17:52:08;11.70;49.50
16347;DHT22;8283;48.504;13.734;2023-03-01T17:54:52;11.50;50.30
16347;DHT22;8283;48.504;13.734;2023-03-01T17:57:40;11.50;49.60
16347;DHT22;8283;48.504;13.734;2023-03-01T18:00:24;11.40;49.60
16347;DHT22;8283;48.504;13.734;2023-03-01T18:03:09;11.40;49.80
16347;DHT22;8283;48.504;13.734;2023-03-01T18:05:53;11.30;49.70
16347;DHT22;8283;48.504;13.734;2023-03-01T18:08:38;11.30;49.60
16347;DHT22;8283;48.504;13.734;2023-03-01T18:11:23;11.20;49.60
16347;DHT22;8283;48.504;13.734;2023-03-01T18:14:08;11.20;49.50
16347;DHT22;8283;48.504;13.734;2023-03-01T18:16:56;11.20;49.60
16347;DHT22;8283;48.504;13.734;2023-03-01T18:19:40;11.10;49.60
16347;DHT22;8283;48.504;13.734;2023-03-01T18:22:24;11.00;49.50
16347;DHT22;8283;48.504;13.734;2023-03-01T18:25:09;11.00;49.70
16347;DHT22;8283;48.504;13.734;2023-03-01T18:27:53;10.90;49.80
16347;DHT22;8283;48.504;13.734;2023-03-01T18:30:38;10.90;49.80
16347;DHT22;8283;48.504;13.734;2023-03-01T18:33:22;10.80;50.00
16347;DHT22;8283;48.504;13.734;2023-03-01T18:36:16;10.80;50.20
16347;DHT22;8283;48.504;13.734;2023-03-01T18:39:02;10.70;50.30
16347;DHT22;8283;48.504;13.734;2023-03-01T18:41:47;10.70;50.50
16347;DHT22;8283;48.504;13.734;2023-03-01T18:44:33;10.70;50.20
16347;DHT22;8283;48.504;13.734;2023-03-01T18:47:17;10.60;50.20
16347;DHT22;8283;48.504;13.734;2023-03-01T18:50:02;9.70;49.80
16347;DHT22;8283;48.504;13.734;2023-03-01T18:52:46;10.60;50.30
16347;DHT22;8283;48.504;13.734;2023-03-01T18:55:35;10.50;50.30
16347;DHT22;8283;48.504;13.734;2023-03-01T18:58:20;10.50;50.40
16347;DHT22;8283;48.504;13.734;2023-03-01T19:01:05;10.50;50.40
16347;DHT22;8283;48.504;13.734;2023-03-01T19:03:55;10.40;50.30
16347;DHT22;8283;48.504;13.734;2023-03-01T19:06:39;10.40;50.30
16347;DHT22;8283;48.504;13.734;2023-03-01T19:09:24;10.40;50.90
16347;DHT22;8283;48.504;13.734;2023-03-01T19:12:08;10.40;51.50
16347;DHT22;8283;48.504;13.734;2023-03-01T19:14:52;10.30;50.80
16347;DHT22;8283;48.504;13.734;2023-03-01T19:17:36;10.30;50.80
16347;DHT22;8283;48.504;13.734;2023-03-01T19:20:21;10.30;50.80
16347;DHT22;8283;48.504;13.734;2023-03-01T19:23:05;10.30;50.80
16347;DHT22;8283;48.504;13.734;2023-03-01T19:25:50;10.20;50.80
16347;DHT22;8283;48.504;13.734;2023-03-01T19:28:35;10.20;50.80
16347;DHT22;8283;48.504;13.734;2023-03-01T19:31:22;10.20;50.90
16347;DHT22;8283;48.504;13.734;2023-03-01T19:34:08;10.20;51.20
16347;DHT22;8283;48.504;13.734;2023-03-01T19:36:53;10.20;51.10
16347;DHT22;8283;48.504;13.734;2023-03-01T19:39:37;10.20;51.00